createdAt,value
2019-01-31T00:00:04.490Z,93.20
2019-01-31T00:03:33.695Z,93.20
2019-01-31T00:06:35.650Z,93.40
2019-01-31T00:09:46.449Z,93.60
2019-01-31T00:12:30.843Z,93.40
2019-01-31T00:15:41.641Z,93.50
2019-01-31T00:18:30.356Z,93.70
2019-01-31T00:21:41.466Z,93.70
2019-01-31T00:24:25.629Z,93.70
2019-01-31T00:27:36.458Z,93.60
2019-01-31T00:30:38.564Z,93.60
2019-01-31T00:33:49.367Z,93.60
2019-01-31T00:36:35.794Z,93.60
2019-01-31T00:39:46.604Z,93.60
2019-01-31T00:42:49.036Z,93.60
2019-01-31T00:46:17.919Z,93.60
2019-01-31T00:49:02.112Z,93.60
2019-01-31T00:52:12.939Z,93.60
2019-01-31T00:55:16.887Z,93.60
2019-01-31T00:58:45.493Z,93.60
2019-01-31T01:01:30.003Z,94.00
2019-01-31T01:04:40.816Z,93.70
2019-01-31T01:07:27.997Z,93.70
2019-01-31T01:10:38.796Z,93.60
2019-01-31T01:13:25.481Z,93.70
2019-01-31T01:16:54.335Z,93.10
2019-01-31T01:19:56.707Z,92.80
2019-01-31T01:23:08.167Z,92.50
2019-01-31T01:26:17.227Z,92.30
2019-01-31T01:29:28.279Z,92.20
2019-01-31T01:32:38.354Z,91.60
2019-01-31T01:35:51.170Z,91.40
2019-01-31T01:38:39.960Z,91.50
2019-01-31T01:41:51.079Z,91.40
2019-01-31T01:44:52.870Z,91.20
2019-01-31T01:48:03.667Z,91.50
2019-01-31T01:50:51.393Z,91.40
2019-01-31T01:54:20.265Z,91.70
2019-01-31T01:57:22.736Z,91.50
2019-01-31T02:00:51.337Z,90.90
2019-01-31T02:03:38.284Z,91.00
2019-01-31T02:06:49.102Z,91.10
2019-01-31T02:09:33.740Z,91.00
2019-01-31T02:12:45.098Z,91.20
2019-01-31T02:15:47.980Z,91.20
2019-01-31T02:19:16.659Z,91.30
2019-01-31T02:22:00.816Z,91.10
2019-01-31T02:25:12.267Z,91.00
2019-01-31T02:28:14.641Z,91.10
2019-01-31T02:31:43.502Z,91.00
2019-01-31T02:34:27.851Z,91.40
2019-01-31T02:37:38.930Z,90.70
2019-01-31T02:40:25.897Z,90.80
2019-01-31T02:43:38.471Z,90.60
2019-01-31T02:46:45.172Z,90.50
2019-01-31T02:49:55.972Z,90.60
2019-01-31T02:52:44.930Z,90.50
2019-01-31T02:55:56.096Z,90.80
2019-01-31T02:58:40.347Z,90.90
2019-01-31T03:02:08.955Z,90.80
2019-01-31T03:04:56.113Z,91.20
2019-01-31T03:08:26.328Z,91.20
2019-01-31T03:11:10.833Z,91.00
2019-01-31T03:17:32.087Z,91.50
2019-01-31T03:20:19.957Z,91.40
2019-01-31T03:23:22.241Z,91.20
2019-01-31T03:26:51.109Z,91.30
2019-01-31T03:29:38.855Z,91.40
2019-01-31T03:33:07.440Z,91.80
2019-01-31T03:36:20.030Z,91.90
2019-01-31T03:39:48.900Z,91.50
2019-01-31T03:42:33.282Z,91.70
2019-01-31T03:45:44.102Z,91.90
2019-01-31T03:48:47.322Z,91.60
2019-01-31T03:51:58.144Z,91.50
2019-01-31T03:54:45.448Z,91.40
2019-01-31T03:57:56.246Z,90.80
2019-01-31T04:00:43.074Z,90.90
2019-01-31T04:03:55.899Z,91.40
2019-01-31T04:06:40.154Z,91.60
2019-01-31T04:09:30.240Z,91.40
2019-01-31T04:12:20.662Z,91.50
2019-01-31T04:15:10.858Z,91.10
2019-01-31T04:17:55.531Z,90.60
2019-01-31T04:20:45.567Z,90.30
2019-01-31T04:23:28.002Z,90.10
2019-01-31T04:29:19.264Z,90.10
2019-01-31T04:32:09.046Z,90.10
2019-01-31T04:34:51.710Z,90.10
2019-01-31T04:37:41.462Z,90.10
2019-01-31T04:40:30.858Z,90.10
2019-01-31T04:43:08.754Z,89.90
2019-01-31T04:46:17.622Z,90.00
2019-01-31T04:49:02.364Z,89.50
2019-01-31T04:51:52.237Z,89.50
2019-01-31T04:54:32.949Z,89.80
2019-01-31T04:57:15.736Z,90.50
2019-01-31T05:00:26.847Z,90.10
2019-01-31T05:03:09.325Z,90.10
2019-01-31T05:05:59.097Z,90.10
2019-01-31T05:08:40.109Z,90.20
2019-01-31T05:11:30.248Z,90.10
2019-01-31T05:14:13.489Z,90.10
2019-01-31T05:17:03.747Z,90.40
2019-01-31T05:19:46.250Z,90.10
2019-01-31T05:22:36.328Z,90.10
2019-01-31T05:25:19.465Z,90.40
2019-01-31T05:31:11.147Z,90.50
2019-01-31T05:34:01.555Z,90.50
2019-01-31T05:36:45.537Z,90.20
2019-01-31T05:39:35.605Z,90.10
2019-01-31T05:42:18.926Z,90.10
2019-01-31T05:45:29.746Z,90.30
2019-01-31T05:48:14.582Z,90.20
2019-01-31T05:54:30.690Z,90.70
2019-01-31T05:57:20.853Z,91.00
2019-01-31T06:00:03.934Z,91.20
2019-01-31T06:02:54.063Z,91.40
2019-01-31T06:05:38.285Z,91.90
2019-01-31T06:08:28.068Z,91.80
2019-01-31T06:11:10.438Z,91.90
2019-01-31T06:14:00.867Z,92.30
2019-01-31T06:16:43.281Z,92.50
2019-01-31T06:23:00.586Z,92.60
2019-01-31T06:25:50.378Z,92.90
2019-01-31T06:28:40.269Z,93.10
2019-01-31T06:31:23.584Z,92.80
2019-01-31T06:34:13.391Z,93.20
2019-01-31T06:36:56.490Z,93.20
2019-01-31T06:42:53.970Z,93.00
2019-01-31T06:45:43.766Z,92.90
2019-01-31T06:48:26.916Z,93.00
2019-01-31T06:51:09.906Z,92.80
2019-01-31T06:53:59.664Z,92.60
2019-01-31T06:56:42.769Z,92.60
2019-01-31T06:59:32.553Z,92.60
2019-01-31T07:02:14.895Z,92.30
2019-01-31T07:05:25.980Z,92.30
2019-01-31T07:08:08.746Z,92.60
2019-01-31T07:10:58.822Z,92.70
2019-01-31T07:13:42.229Z,92.60
2019-01-31T07:16:31.989Z,92.50
2019-01-31T07:19:14.531Z,92.50
2019-01-31T07:22:04.607Z,92.40
2019-01-31T07:24:46.890Z,92.40
2019-01-31T07:31:04.091Z,92.30
2019-01-31T07:33:46.656Z,92.80
2019-01-31T07:36:36.839Z,92.70
2019-01-31T07:39:19.288Z,92.60
2019-01-31T07:42:09.075Z,92.30
2019-01-31T07:44:51.591Z,92.10
2019-01-31T07:47:41.404Z,91.80
2019-01-31T07:50:24.017Z,91.60
2019-01-31T07:53:14.165Z,91.10
2019-01-31T07:55:56.433Z,91.10
2019-01-31T07:58:39.341Z,90.90
2019-01-31T08:01:29.387Z,90.80
2019-01-31T08:04:12.053Z,90.60
2019-01-31T08:07:01.829Z,90.60
2019-01-31T08:09:42.584Z,90.20
2019-01-31T08:12:34.628Z,90.30
2019-01-31T08:15:36.806Z,90.30
2019-01-31T08:18:27.248Z,89.70
2019-01-31T08:21:10.196Z,89.30
2019-01-31T08:24:00.012Z,89.60
2019-01-31T08:26:43.016Z,90.00
2019-01-31T08:29:32.867Z,89.40
2019-01-31T08:32:13.553Z,89.00
2019-01-31T08:35:03.355Z,89.70
2019-01-31T08:37:46.061Z,89.10
2019-01-31T08:40:36.143Z,89.00
2019-01-31T08:43:20.547Z,88.10
2019-01-31T08:46:10.456Z,87.40
2019-01-31T08:48:54.543Z,87.30
2019-01-31T08:51:44.319Z,87.80
2019-01-31T08:54:28.954Z,86.40
2019-01-31T08:57:18.798Z,84.30
2019-01-31T09:00:03.625Z,84.30
2019-01-31T09:02:53.658Z,83.80
2019-01-31T09:05:36.380Z,82.90
2019-01-31T09:08:26.131Z,82.70
2019-01-31T09:11:08.928Z,82.80
2019-01-31T09:13:59.005Z,83.50
2019-01-31T09:16:41.917Z,83.80
2019-01-31T09:19:31.676Z,83.90
2019-01-31T09:22:16.635Z,84.50
2019-01-31T09:25:45.243Z,83.10
2019-01-31T09:28:32.269Z,82.90
2019-01-31T09:32:00.876Z,82.90
2019-01-31T09:35:05.202Z,83.00
2019-01-31T09:38:34.376Z,82.20
2019-01-31T09:41:18.795Z,81.90
2019-01-31T09:44:29.597Z,79.90
2019-01-31T09:47:32.164Z,79.70
2019-01-31T09:50:43.696Z,79.00
2019-01-31T09:53:44.738Z,79.00
2019-01-31T09:57:13.602Z,78.70
2019-01-31T09:59:58.768Z,76.90
2019-01-31T10:03:27.644Z,77.00
2019-01-31T10:06:38.474Z,75.70
2019-01-31T10:10:07.096Z,74.80
2019-01-31T10:13:16.170Z,74.80
2019-01-31T10:16:27.259Z,73.30
2019-01-31T10:19:36.352Z,74.10
2019-01-31T10:22:47.443Z,73.90
2019-01-31T10:25:58.828Z,73.00
2019-01-31T10:29:27.675Z,74.00
2019-01-31T10:32:36.955Z,74.30
2019-01-31T10:35:47.748Z,72.70
2019-01-31T10:38:32.215Z,70.60
2019-01-31T10:41:43.345Z,69.80
2019-01-31T10:44:27.818Z,68.80
2019-01-31T10:47:38.970Z,65.20
2019-01-31T10:50:47.982Z,64.30
2019-01-31T10:53:59.089Z,64.10
2019-01-31T10:57:01.138Z,62.20
2019-01-31T11:04:01.449Z,62.10
2019-01-31T11:07:31.748Z,61.40
2019-01-31T11:10:41.099Z,60.80
2019-01-31T11:14:09.961Z,58.70
2019-01-31T11:17:20.157Z,59.40
2019-01-31T11:20:22.923Z,58.80
2019-01-31T11:23:51.778Z,58.60
2019-01-31T11:30:03.717Z,56.90
2019-01-31T11:32:50.287Z,57.80
2019-01-31T11:36:18.914Z,57.70
2019-01-31T11:39:29.723Z,58.80
2019-01-31T11:42:14.792Z,58.90
2019-01-31T11:45:43.772Z,59.70
2019-01-31T11:48:30.613Z,61.10
2019-01-31T11:51:59.530Z,63.30
2019-01-31T11:54:44.160Z,63.40
2019-01-31T11:57:55.239Z,65.00
2019-01-31T12:00:38.430Z,65.50
2019-01-31T12:06:30.033Z,66.40
2019-01-31T12:09:20.147Z,64.90
2019-01-31T12:12:02.758Z,64.80
2019-01-31T12:14:52.533Z,65.20
2019-01-31T12:17:33.589Z,62.40
2019-01-31T12:20:23.961Z,61.60
2019-01-31T12:23:06.936Z,57.90
2019-01-31T12:25:56.718Z,55.90
2019-01-31T12:28:39.448Z,56.10
2019-01-31T12:31:29.845Z,54.00
2019-01-31T12:34:12.178Z,53.80
2019-01-31T12:37:02.653Z,53.50
2019-01-31T12:39:45.851Z,53.70
2019-01-31T12:42:35.631Z,53.90
2019-01-31T12:45:20.521Z,55.00
2019-01-31T12:48:10.273Z,54.00
2019-01-31T12:50:53.468Z,55.00
2019-01-31T12:53:43.251Z,54.60
2019-01-31T12:56:27.233Z,55.50
2019-01-31T12:59:17.004Z,55.60
2019-01-31T13:01:58.082Z,55.00
2019-01-31T13:04:47.862Z,54.70
2019-01-31T13:07:30.626Z,54.90
2019-01-31T13:10:21.032Z,54.50
2019-01-31T13:13:03.707Z,55.70
2019-01-31T13:15:53.749Z,55.80
2019-01-31T13:18:36.446Z,56.20
2019-01-31T13:21:26.194Z,56.80
2019-01-31T13:24:10.546Z,56.80
2019-01-31T13:27:00.696Z,57.40
2019-01-31T13:29:43.247Z,57.60
2019-01-31T13:32:32.994Z,58.70
2019-01-31T13:35:17.331Z,58.10
2019-01-31T13:38:07.441Z,57.40
2019-01-31T13:40:52.043Z,57.90
2019-01-31T13:43:41.800Z,57.60
2019-01-31T13:46:26.495Z,57.50
2019-01-31T13:49:17.931Z,57.70
2019-01-31T13:52:20.203Z,57.50
2019-01-31T13:55:31.005Z,57.80
2019-01-31T13:58:13.863Z,57.50
2019-01-31T14:01:03.641Z,58.20
2019-01-31T14:03:45.988Z,58.90
2019-01-31T14:06:35.771Z,59.70
2019-01-31T14:09:18.280Z,60.00
2019-01-31T14:12:08.129Z,59.90
2019-01-31T14:14:52.783Z,60.50
2019-01-31T14:17:42.539Z,61.90
2019-01-31T14:20:27.335Z,61.30
2019-01-31T14:23:17.401Z,61.90
2019-01-31T14:25:58.151Z,62.40
2019-01-31T14:28:48.490Z,61.90
2019-01-31T14:31:30.933Z,61.80
2019-01-31T14:34:20.702Z,61.80
2019-01-31T14:37:01.675Z,61.90
2019-01-31T14:43:18.599Z,62.50
2019-01-31T14:46:08.385Z,63.20
2019-01-31T14:48:58.188Z,63.60
2019-01-31T14:51:41.171Z,63.80
2019-01-31T14:54:30.967Z,64.20
2019-01-31T14:57:11.610Z,65.70
2019-01-31T14:59:54.820Z,66.40
2019-01-31T15:02:44.594Z,66.40
2019-01-31T15:05:27.279Z,66.30
2019-01-31T15:08:17.065Z,66.60
2019-01-31T15:10:59.967Z,66.90
2019-01-31T15:13:50.043Z,67.00
2019-01-31T15:16:33.412Z,67.10
2019-01-31T15:19:23.160Z,67.00
2019-01-31T15:22:05.537Z,66.50
2019-01-31T15:24:55.318Z,67.60
2019-01-31T15:27:38.505Z,68.00
2019-01-31T15:30:49.316Z,68.60
2019-01-31T15:33:20.155Z,69.50
2019-01-31T15:36:11.545Z,68.80
2019-01-31T15:38:54.858Z,69.20
2019-01-31T15:44:46.383Z,68.80
2019-01-31T15:50:38.247Z,68.10
2019-01-31T15:53:28.286Z,68.50
2019-01-31T15:56:11.512Z,69.10
2019-01-31T15:59:01.503Z,70.30
2019-01-31T16:01:46.417Z,70.80
2019-01-31T16:04:36.169Z,71.10
2019-01-31T16:07:21.001Z,71.40
2019-01-31T16:13:38.615Z,73.10
2019-01-31T16:16:28.642Z,73.80
2019-01-31T16:19:18.436Z,74.80
2019-01-31T16:22:00.819Z,74.70
2019-01-31T16:24:50.983Z,75.00
2019-01-31T16:27:34.973Z,76.30
2019-01-31T16:30:19.104Z,76.80
2019-01-31T16:36:35.433Z,78.70
2019-01-31T16:42:39.872Z,81.00
2019-01-31T16:45:22.985Z,82.70
2019-01-31T16:48:13.360Z,82.80
2019-01-31T16:50:56.708Z,83.90
2019-01-31T16:53:47.162Z,84.70
2019-01-31T16:56:30.494Z,85.10
2019-01-31T16:59:20.562Z,86.20
2019-01-31T17:02:03.140Z,87.00
2019-01-31T17:04:53.213Z,87.50
2019-01-31T17:07:36.034Z,88.10
2019-01-31T17:10:26.127Z,88.50
2019-01-31T17:13:10.782Z,88.50
2019-01-31T17:16:00.552Z,88.70
2019-01-31T17:18:45.655Z,89.30
2019-01-31T17:21:35.733Z,89.70
2019-01-31T17:24:18.282Z,90.00
2019-01-31T17:27:08.100Z,89.30
2019-01-31T17:29:50.515Z,89.10
2019-01-31T17:32:40.593Z,90.20
2019-01-31T17:35:23.772Z,90.10
2019-01-31T17:38:13.579Z,90.40
2019-01-31T17:40:56.650Z,90.40
2019-01-31T17:43:48.319Z,90.70
2019-01-31T17:46:51.439Z,91.20
2019-01-31T17:49:33.951Z,91.30
2019-01-31T17:52:23.712Z,91.30
2019-01-31T17:55:09.624Z,91.30
2019-01-31T17:57:59.399Z,91.40
2019-01-31T18:00:46.499Z,91.70
2019-01-31T18:03:36.552Z,91.80
2019-01-31T18:06:19.081Z,91.80
2019-01-31T18:09:08.906Z,91.80
2019-01-31T18:11:51.255Z,91.80
2019-01-31T18:17:42.965Z,92.20
2019-01-31T18:23:34.722Z,92.90
2019-01-31T18:26:24.514Z,93.20
2019-01-31T18:29:07.091Z,93.30
2019-01-31T18:31:56.870Z,93.50
2019-01-31T18:34:39.385Z,93.70
2019-01-31T18:37:29.668Z,93.70
2019-01-31T18:40:14.311Z,94.00
2019-01-31T18:43:04.068Z,94.00
2019-01-31T18:45:53.301Z,94.00
2019-01-31T18:48:33.528Z,93.90
2019-01-31T18:51:23.722Z,94.00
2019-01-31T18:54:06.264Z,94.10
2019-01-31T18:56:56.340Z,94.30
2019-01-31T18:59:39.268Z,94.30
2019-01-31T19:02:29.090Z,94.30
2019-01-31T19:05:12.308Z,94.70
2019-01-31T19:08:02.101Z,94.60
2019-01-31T19:10:46.500Z,94.50
2019-01-31T19:16:38.130Z,94.50
2019-01-31T19:19:23.108Z,94.70
2019-01-31T19:22:12.966Z,95.00
2019-01-31T19:24:55.446Z,95.10
2019-01-31T19:31:13.707Z,95.00
2019-01-31T19:34:03.767Z,95.10
2019-01-31T19:36:53.570Z,95.20
2019-01-31T19:39:36.116Z,95.20
2019-01-31T19:42:25.940Z,95.20
2019-01-31T19:45:12.210Z,95.50
2019-01-31T19:47:55.205Z,94.90
2019-01-31T19:50:44.973Z,94.90
2019-01-31T19:53:27.779Z,95.00
2019-01-31T19:56:17.542Z,94.90
2019-01-31T19:59:00.421Z,95.00
2019-01-31T20:01:50.829Z,95.10
2019-01-31T20:04:53.847Z,95.20
2019-01-31T20:07:43.764Z,95.00
2019-01-31T20:10:27.760Z,95.00
2019-01-31T20:13:17.794Z,95.00
2019-01-31T20:15:58.470Z,95.00
2019-01-31T20:21:56.278Z,94.90
2019-01-31T20:24:46.083Z,94.80
2019-01-31T20:27:30.810Z,94.80
2019-01-31T20:30:41.660Z,94.60
2019-01-31T20:33:24.577Z,94.70
2019-01-31T20:36:14.768Z,94.80
2019-01-31T20:38:57.497Z,94.60
2019-01-31T20:41:54.387Z,94.60
2019-01-31T20:44:51.562Z,94.50
2019-01-31T20:47:41.730Z,94.50
2019-01-31T20:50:42.092Z,94.60
2019-01-31T20:53:31.877Z,94.80
2019-01-31T20:56:14.303Z,94.90
2019-01-31T21:02:27.092Z,95.00
2019-01-31T21:05:10.415Z,95.20
2019-01-31T21:07:53.012Z,95.00
2019-01-31T21:10:42.777Z,95.00
2019-01-31T21:13:23.768Z,95.30
2019-01-31T21:16:13.797Z,95.20
2019-01-31T21:18:58.448Z,95.30
2019-01-31T21:21:48.213Z,95.30
2019-01-31T21:24:31.400Z,95.50
2019-01-31T21:27:21.466Z,95.50
2019-01-31T21:30:02.123Z,95.50
2019-01-31T21:32:44.856Z,95.60
2019-01-31T21:38:36.870Z,96.10
2019-01-31T21:41:27.193Z,96.10
2019-01-31T21:44:17.081Z,96.30
2019-01-31T21:47:03.423Z,96.20
2019-01-31T21:49:51.505Z,96.30
2019-01-31T21:52:36.558Z,96.40
2019-01-31T21:55:26.398Z,96.40
2019-01-31T21:58:11.439Z,96.50
2019-01-31T22:01:20.380Z,96.60
2019-01-31T22:04:04.923Z,96.60
2019-01-31T22:06:48.099Z,96.40
2019-01-31T22:09:30.904Z,96.40
2019-01-31T22:12:40.051Z,96.40
2019-01-31T22:15:23.851Z,96.40
2019-01-31T22:18:13.686Z,96.50
2019-01-31T22:21:03.747Z,96.30
2019-01-31T22:23:46.419Z,96.30
2019-01-31T22:26:36.520Z,96.30
2019-01-31T22:29:19.607Z,96.30
2019-01-31T22:32:28.509Z,96.30
2019-01-31T22:35:11.701Z,96.50
2019-01-31T22:38:01.819Z,96.70
2019-01-31T22:40:46.434Z,96.90
2019-01-31T22:43:36.218Z,97.30
2019-01-31T22:46:21.211Z,97.30
2019-01-31T22:52:44.681Z,97.30
2019-01-31T22:55:28.719Z,97.30
2019-01-31T22:58:18.798Z,97.30
2019-01-31T23:01:22.704Z,97.30
2019-01-31T23:04:12.501Z,97.30
2019-01-31T23:06:55.585Z,97.30
2019-01-31T23:09:45.582Z,97.30
2019-01-31T23:12:28.603Z,97.20
2019-01-31T23:15:18.364Z,97.20
2019-01-31T23:18:01.451Z,97.50
2019-01-31T23:20:51.241Z,97.40
2019-01-31T23:23:34.011Z,97.60
2019-01-31T23:26:24.112Z,97.40
2019-01-31T23:29:06.953Z,97.20
2019-01-31T23:31:56.720Z,97.40
2019-01-31T23:34:40.033Z,97.40
2019-01-31T23:37:29.819Z,97.40
2019-01-31T23:40:12.254Z,97.70
2019-01-31T23:46:04.971Z,97.60
2019-01-31T23:51:56.997Z,97.70
2019-01-31T23:54:47.053Z,97.90
2019-01-31T23:57:31.680Z,97.70
